sensor_id;sensor_type;location;lat;lon;timestamp;P1;durP1;ratioP1;P2;durP2;ratioP2
2956;SDS011;1488;51.548;7.222;2022-07-23T00:00:30;1.50;;;1.40;;
2956;SDS011;1488;51.548;7.222;2022-07-23T00:02:57;1.80;;;1.70;;
2956;SDS011;1488;51.548;7.222;2022-07-23T00:05:25;1.70;;;1.60;;
2956;SDS011;1488;51.548;7.222;2022-07-23T00:07:52;1.90;;;1.80;;
2956;SDS011;1488;51.548;7.222;2022-07-23T00:10:19;1.93;;;1.70;;
2956;SDS011;1488;51.548;7.222;2022-07-23T00:12:46;2.00;;;1.90;;
2956;SDS011;1488;51.548;7.222;2022-07-23T00:15:13;1.53;;;1.43;;
2956;SDS011;1488;51.548;7.222;2022-07-23T00:17:40;1.77;;;1.67;;
2956;SDS011;1488;51.548;7.222;2022-07-23T00:20:07;1.77;;;1.57;;
2956;SDS011;1488;51.548;7.222;2022-07-23T00:22:36;1.90;;;1.80;;
2956;SDS011;1488;51.548;7.222;2022-07-23T00:25:11;1.60;;;1.50;;
2956;SDS011;1488;51.548;7.222;2022-07-23T00:27:38;2.20;;;2.00;;
2956;SDS011;1488;51.548;7.222;2022-07-23T00:30:05;2.27;;;2.17;;
2956;SDS011;1488;51.548;7.222;2022-07-23T00:32:44;1.60;;;1.50;;
2956;SDS011;1488;51.548;7.222;2022-07-23T00:35:11;1.83;;;1.73;;
2956;SDS011;1488;51.548;7.222;2022-07-23T00:37:40;1.97;;;1.87;;
2956;SDS011;1488;51.548;7.222;2022-07-23T00:40:07;1.93;;;1.80;;
2956;SDS011;1488;51.548;7.222;2022-07-23T00:42:36;1.90;;;1.80;;
2956;SDS011;1488;51.548;7.222;2022-07-23T00:45:04;1.70;;;1.60;;
2956;SDS011;1488;51.548;7.222;2022-07-23T00:47:32;2.10;;;1.90;;
2956;SDS011;1488;51.548;7.222;2022-07-23T00:49:59;1.43;;;1.33;;
2956;SDS011;1488;51.548;7.222;2022-07-23T00:52:26;1.80;;;1.70;;
2956;SDS011;1488;51.548;7.222;2022-07-23T00:58:17;1.80;;;1.70;;
2956;SDS011;1488;51.548;7.222;2022-07-23T01:00:45;1.60;;;1.50;;
2956;SDS011;1488;51.548;7.222;2022-07-23T01:03:12;1.57;;;1.47;;
2956;SDS011;1488;51.548;7.222;2022-07-23T01:05:39;1.80;;;1.70;;
2956;SDS011;1488;51.548;7.222;2022-07-23T01:08:06;2.13;;;2.00;;
2956;SDS011;1488;51.548;7.222;2022-07-23T01:10:33;1.80;;;1.70;;
2956;SDS011;1488;51.548;7.222;2022-07-23T01:13:01;1.37;;;1.27;;
2956;SDS011;1488;51.548;7.222;2022-07-23T01:15:31;1.63;;;1.53;;
2956;SDS011;1488;51.548;7.222;2022-07-23T01:17:59;1.90;;;1.80;;
2956;SDS011;1488;51.548;7.222;2022-07-23T01:20:26;1.60;;;1.50;;
2956;SDS011;1488;51.548;7.222;2022-07-23T01:22:54;1.70;;;1.60;;
2956;SDS011;1488;51.548;7.222;2022-07-23T01:25:22;1.70;;;1.60;;
2956;SDS011;1488;51.548;7.222;2022-07-23T01:27:50;1.70;;;1.60;;
2956;SDS011;1488;51.548;7.222;2022-07-23T01:30:18;1.90;;;1.80;;
2956;SDS011;1488;51.548;7.222;2022-07-23T01:32:45;1.93;;;1.43;;
2956;SDS011;1488;51.548;7.222;2022-07-23T01:35:12;1.53;;;1.43;;
2956;SDS011;1488;51.548;7.222;2022-07-23T01:37:39;2.43;;;1.60;;
2956;SDS011;1488;51.548;7.222;2022-07-23T01:40:08;1.50;;;1.40;;
2956;SDS011;1488;51.548;7.222;2022-07-23T01:42:35;1.83;;;1.53;;
2956;SDS011;1488;51.548;7.222;2022-07-23T01:45:03;1.40;;;1.30;;
2956;SDS011;1488;51.548;7.222;2022-07-23T01:47:30;1.40;;;1.30;;
2956;SDS011;1488;51.548;7.222;2022-07-23T01:49:57;1.57;;;1.47;;
2956;SDS011;1488;51.548;7.222;2022-07-23T01:52:24;1.60;;;1.50;;
2956;SDS011;1488;51.548;7.222;2022-07-23T01:54:51;1.80;;;1.70;;
2956;SDS011;1488;51.548;7.222;2022-07-23T01:57:19;1.53;;;1.43;;
2956;SDS011;1488;51.548;7.222;2022-07-23T01:59:46;1.30;;;1.20;;
2956;SDS011;1488;51.548;7.222;2022-07-23T02:02:13;1.50;;;1.40;;
2956;SDS011;1488;51.548;7.222;2022-07-23T02:04:40;1.50;;;1.40;;
2956;SDS011;1488;51.548;7.222;2022-07-23T02:07:07;1.37;;;1.27;;
2956;SDS011;1488;51.548;7.222;2022-07-23T02:09:34;1.57;;;1.47;;
2956;SDS011;1488;51.548;7.222;2022-07-23T02:12:01;1.40;;;1.30;;
2956;SDS011;1488;51.548;7.222;2022-07-23T02:14:30;1.60;;;1.50;;
2956;SDS011;1488;51.548;7.222;2022-07-23T02:16:57;1.60;;;1.50;;
2956;SDS011;1488;51.548;7.222;2022-07-23T02:19:24;1.50;;;1.40;;
2956;SDS011;1488;51.548;7.222;2022-07-23T02:21:52;1.37;;;1.27;;
2956;SDS011;1488;51.548;7.222;2022-07-23T02:24:19;1.47;;;1.37;;
2956;SDS011;1488;51.548;7.222;2022-07-23T02:26:46;1.60;;;1.50;;
2956;SDS011;1488;51.548;7.222;2022-07-23T02:29:13;1.33;;;1.23;;
2956;SDS011;1488;51.548;7.222;2022-07-23T02:31:41;1.33;;;1.23;;
2956;SDS011;1488;51.548;7.222;2022-07-23T02:34:08;1.43;;;1.33;;
2956;SDS011;1488;51.548;7.222;2022-07-23T02:36:36;2.43;;;1.30;;
2956;SDS011;1488;51.548;7.222;2022-07-23T02:39:04;1.70;;;1.60;;
2956;SDS011;1488;51.548;7.222;2022-07-23T02:41:31;1.70;;;1.60;;
2956;SDS011;1488;51.548;7.222;2022-07-23T02:43:58;1.80;;;1.70;;
2956;SDS011;1488;51.548;7.222;2022-07-23T02:46:25;1.40;;;1.30;;
2956;SDS011;1488;51.548;7.222;2022-07-23T02:48:53;1.47;;;1.30;;
2956;SDS011;1488;51.548;7.222;2022-07-23T02:51:20;1.60;;;1.50;;
2956;SDS011;1488;51.548;7.222;2022-07-23T02:53:47;1.30;;;1.20;;
2956;SDS011;1488;51.548;7.222;2022-07-23T02:56:14;1.53;;;1.43;;
2956;SDS011;1488;51.548;7.222;2022-07-23T02:58:41;1.60;;;1.50;;
2956;SDS011;1488;51.548;7.222;2022-07-23T03:01:08;1.33;;;1.23;;
2956;SDS011;1488;51.548;7.222;2022-07-23T03:03:35;1.70;;;1.60;;
2956;SDS011;1488;51.548;7.222;2022-07-23T03:06:04;1.40;;;1.30;;
2956;SDS011;1488;51.548;7.222;2022-07-23T03:08:31;1.50;;;1.40;;
2956;SDS011;1488;51.548;7.222;2022-07-23T03:10:58;1.30;;;1.20;;
2956;SDS011;1488;51.548;7.222;2022-07-23T03:13:25;1.40;;;1.30;;
2956;SDS011;1488;51.548;7.222;2022-07-23T03:15:52;1.37;;;1.27;;
2956;SDS011;1488;51.548;7.222;2022-07-23T03:18:18;1.63;;;1.47;;
2956;SDS011;1488;51.548;7.222;2022-07-23T03:20:45;1.37;;;1.27;;
2956;SDS011;1488;51.548;7.222;2022-07-23T03:23:14;1.30;;;1.13;;
2956;SDS011;1488;51.548;7.222;2022-07-23T03:25:42;1.60;;;1.50;;
2956;SDS011;1488;51.548;7.222;2022-07-23T03:28:09;1.67;;;1.57;;
2956;SDS011;1488;51.548;7.222;2022-07-23T03:30:36;1.57;;;1.47;;
2956;SDS011;1488;51.548;7.222;2022-07-23T03:33:03;1.43;;;1.33;;
2956;SDS011;1488;51.548;7.222;2022-07-23T03:35:30;1.33;;;1.23;;
2956;SDS011;1488;51.548;7.222;2022-07-23T03:37:57;1.50;;;1.40;;
2956;SDS011;1488;51.548;7.222;2022-07-23T03:40:25;1.40;;;1.30;;
2956;SDS011;1488;51.548;7.222;2022-07-23T03:42:52;1.40;;;1.30;;
2956;SDS011;1488;51.548;7.222;2022-07-23T03:45:19;1.70;;;1.60;;
2956;SDS011;1488;51.548;7.222;2022-07-23T03:47:46;1.27;;;1.17;;
2956;SDS011;1488;51.548;7.222;2022-07-23T03:50:13;1.47;;;1.37;;
2956;SDS011;1488;51.548;7.222;2022-07-23T03:52:40;1.50;;;1.20;;
2956;SDS011;1488;51.548;7.222;2022-07-23T03:55:07;1.40;;;1.30;;
2956;SDS011;1488;51.548;7.222;2022-07-23T03:57:36;1.43;;;1.33;;
2956;SDS011;1488;51.548;7.222;2022-07-23T04:00:04;1.70;;;1.60;;
2956;SDS011;1488;51.548;7.222;2022-07-23T04:02:33;1.37;;;1.27;;
2956;SDS011;1488;51.548;7.222;2022-07-23T04:05:00;1.30;;;1.20;;
2956;SDS011;1488;51.548;7.222;2022-07-23T04:07:27;1.30;;;1.20;;
2956;SDS011;1488;51.548;7.222;2022-07-23T04:09:54;1.40;;;1.30;;
2956;SDS011;1488;51.548;7.222;2022-07-23T04:12:22;1.40;;;1.30;;
2956;SDS011;1488;51.548;7.222;2022-07-23T04:14:50;1.47;;;1.37;;
2956;SDS011;1488;51.548;7.222;2022-07-23T04:17:17;1.40;;;1.30;;
2956;SDS011;1488;51.548;7.222;2022-07-23T04:19:44;1.30;;;1.20;;
2956;SDS011;1488;51.548;7.222;2022-07-23T04:22:11;1.63;;;1.50;;
2956;SDS011;1488;51.548;7.222;2022-07-23T04:24:38;1.23;;;1.13;;
2956;SDS011;1488;51.548;7.222;2022-07-23T04:27:06;1.50;;;1.40;;
2956;SDS011;1488;51.548;7.222;2022-07-23T04:29:32;1.20;;;1.10;;
2956;SDS011;1488;51.548;7.222;2022-07-23T04:32:01;1.20;;;1.10;;
2956;SDS011;1488;51.548;7.222;2022-07-23T04:34:28;1.20;;;1.10;;
2956;SDS011;1488;51.548;7.222;2022-07-23T04:36:55;1.50;;;1.40;;
2956;SDS011;1488;51.548;7.222;2022-07-23T04:39:22;1.20;;;1.10;;
2956;SDS011;1488;51.548;7.222;2022-07-23T04:41:49;1.30;;;1.20;;
2956;SDS011;1488;51.548;7.222;2022-07-23T04:44:16;1.27;;;1.17;;
2956;SDS011;1488;51.548;7.222;2022-07-23T04:46:43;1.30;;;1.20;;
2956;SDS011;1488;51.548;7.222;2022-07-23T04:49:11;1.27;;;1.17;;
2956;SDS011;1488;51.548;7.222;2022-07-23T04:51:38;1.40;;;1.30;;
2956;SDS011;1488;51.548;7.222;2022-07-23T04:54:05;1.33;;;1.23;;
2956;SDS011;1488;51.548;7.222;2022-07-23T04:56:32;1.13;;;1.00;;
2956;SDS011;1488;51.548;7.222;2022-07-23T04:58:59;1.30;;;1.20;;
2956;SDS011;1488;51.548;7.222;2022-07-23T05:01:26;1.30;;;1.20;;
2956;SDS011;1488;51.548;7.222;2022-07-23T05:03:53;1.10;;;1.00;;
2956;SDS011;1488;51.548;7.222;2022-07-23T05:06:21;1.10;;;1.00;;
2956;SDS011;1488;51.548;7.222;2022-07-23T05:08:48;2.17;;;1.40;;
2956;SDS011;1488;51.548;7.222;2022-07-23T05:11:15;1.20;;;1.10;;
2956;SDS011;1488;51.548;7.222;2022-07-23T05:13:42;1.27;;;1.17;;
2956;SDS011;1488;51.548;7.222;2022-07-23T05:16:09;1.30;;;1.20;;
2956;SDS011;1488;51.548;7.222;2022-07-23T05:18:36;1.30;;;1.20;;
2956;SDS011;1488;51.548;7.222;2022-07-23T05:21:03;1.10;;;1.00;;
2956;SDS011;1488;51.548;7.222;2022-07-23T05:23:31;1.30;;;1.20;;
2956;SDS011;1488;51.548;7.222;2022-07-23T05:25:58;1.20;;;1.10;;
2956;SDS011;1488;51.548;7.222;2022-07-23T05:28:25;1.40;;;1.30;;
2956;SDS011;1488;51.548;7.222;2022-07-23T05:30:52;1.40;;;1.30;;
2956;SDS011;1488;51.548;7.222;2022-07-23T05:33:19;1.27;;;1.17;;
2956;SDS011;1488;51.548;7.222;2022-07-23T05:35:46;4.93;;;4.63;;
2956;SDS011;1488;51.548;7.222;2022-07-23T05:38:13;7.13;;;5.33;;
2956;SDS011;1488;51.548;7.222;2022-07-23T05:40:41;5.20;;;4.80;;
2956;SDS011;1488;51.548;7.222;2022-07-23T05:43:08;5.60;;;5.20;;
2956;SDS011;1488;51.548;7.222;2022-07-23T05:45:35;6.07;;;5.13;;
2956;SDS011;1488;51.548;7.222;2022-07-23T05:48:02;6.70;;;4.20;;
2956;SDS011;1488;51.548;7.222;2022-07-23T05:50:30;8.33;;;5.90;;
2956;SDS011;1488;51.548;7.222;2022-07-23T05:52:57;6.23;;;5.30;;
2956;SDS011;1488;51.548;7.222;2022-07-23T05:55:24;6.73;;;5.53;;
2956;SDS011;1488;51.548;7.222;2022-07-23T05:57:52;8.97;;;6.07;;
2956;SDS011;1488;51.548;7.222;2022-07-23T06:00:19;6.37;;;5.77;;
2956;SDS011;1488;51.548;7.222;2022-07-23T06:02:46;5.97;;;5.30;;
2956;SDS011;1488;51.548;7.222;2022-07-23T06:05:13;6.33;;;5.83;;
2956;SDS011;1488;51.548;7.222;2022-07-23T06:07:40;8.43;;;7.63;;
2956;SDS011;1488;51.548;7.222;2022-07-23T06:10:08;7.80;;;7.07;;
2956;SDS011;1488;51.548;7.222;2022-07-23T06:12:35;11.23;;;7.20;;
2956;SDS011;1488;51.548;7.222;2022-07-23T06:15:04;9.10;;;8.20;;
2956;SDS011;1488;51.548;7.222;2022-07-23T06:17:32;8.90;;;8.00;;
2956;SDS011;1488;51.548;7.222;2022-07-23T06:19:59;8.53;;;7.73;;
2956;SDS011;1488;51.548;7.222;2022-07-23T06:22:26;8.67;;;8.03;;
2956;SDS011;1488;51.548;7.222;2022-07-23T06:24:53;9.07;;;8.37;;
2956;SDS011;1488;51.548;7.222;2022-07-23T06:27:20;9.87;;;9.00;;
2956;SDS011;1488;51.548;7.222;2022-07-23T06:29:47;10.47;;;9.30;;
2956;SDS011;1488;51.548;7.222;2022-07-23T06:32:15;12.10;;;10.90;;
2956;SDS011;1488;51.548;7.222;2022-07-23T06:34:42;12.73;;;11.57;;
2956;SDS011;1488;51.548;7.222;2022-07-23T06:37:09;11.63;;;10.30;;
2956;SDS011;1488;51.548;7.222;2022-07-23T06:39:36;11.90;;;11.00;;
2956;SDS011;1488;51.548;7.222;2022-07-23T06:42:03;11.80;;;9.83;;
2956;SDS011;1488;51.548;7.222;2022-07-23T06:44:30;17.17;;;9.70;;
2956;SDS011;1488;51.548;7.222;2022-07-23T06:46:57;9.53;;;8.50;;
2956;SDS011;1488;51.548;7.222;2022-07-23T06:49:25;10.40;;;8.90;;
2956;SDS011;1488;51.548;7.222;2022-07-23T06:51:52;9.67;;;8.50;;
2956;SDS011;1488;51.548;7.222;2022-07-23T06:54:19;8.40;;;7.70;;
2956;SDS011;1488;51.548;7.222;2022-07-23T07:01:57;9.00;;;8.10;;
2956;SDS011;1488;51.548;7.222;2022-07-23T07:07:00;11.30;;;8.47;;
2956;SDS011;1488;51.548;7.222;2022-07-23T07:09:27;8.10;;;7.23;;
2956;SDS011;1488;51.548;7.222;2022-07-23T07:11:54;7.73;;;6.93;;
2956;SDS011;1488;51.548;7.222;2022-07-23T07:14:21;8.40;;;7.50;;
2956;SDS011;1488;51.548;7.222;2022-07-23T07:16:48;9.90;;;7.23;;
2956;SDS011;1488;51.548;7.222;2022-07-23T07:19:15;9.00;;;8.10;;
2956;SDS011;1488;51.548;7.222;2022-07-23T07:21:42;8.00;;;7.30;;
2956;SDS011;1488;51.548;7.222;2022-07-23T07:24:10;9.63;;;7.70;;
2956;SDS011;1488;51.548;7.222;2022-07-23T07:26:37;7.13;;;6.00;;
2956;SDS011;1488;51.548;7.222;2022-07-23T07:29:04;10.80;;;7.23;;
2956;SDS011;1488;51.548;7.222;2022-07-23T07:31:32;9.53;;;7.87;;
2956;SDS011;1488;51.548;7.222;2022-07-23T07:33:59;8.93;;;7.27;;
2956;SDS011;1488;51.548;7.222;2022-07-23T07:36:29;8.40;;;7.47;;
2956;SDS011;1488;51.548;7.222;2022-07-23T07:39:02;7.20;;;6.50;;
2956;SDS011;1488;51.548;7.222;2022-07-23T07:41:35;6.80;;;6.10;;
2956;SDS011;1488;51.548;7.222;2022-07-23T07:44:02;6.60;;;6.10;;
2956;SDS011;1488;51.548;7.222;2022-07-23T07:46:29;6.20;;;5.60;;
2956;SDS011;1488;51.548;7.222;2022-07-23T07:48:56;4.73;;;4.33;;
2956;SDS011;1488;51.548;7.222;2022-07-23T07:51:23;5.57;;;5.07;;
2956;SDS011;1488;51.548;7.222;2022-07-23T07:53:50;9.30;;;5.27;;
2956;SDS011;1488;51.548;7.222;2022-07-23T07:56:17;5.13;;;4.33;;
2956;SDS011;1488;51.548;7.222;2022-07-23T07:58:45;5.97;;;4.37;;
2956;SDS011;1488;51.548;7.222;2022-07-23T08:01:12;5.00;;;4.63;;
2956;SDS011;1488;51.548;7.222;2022-07-23T08:03:39;5.77;;;5.10;;
2956;SDS011;1488;51.548;7.222;2022-07-23T08:06:06;5.13;;;4.30;;
2956;SDS011;1488;51.548;7.222;2022-07-23T08:08:33;4.13;;;3.73;;
2956;SDS011;1488;51.548;7.222;2022-07-23T08:11:00;7.97;;;4.50;;
2956;SDS011;1488;51.548;7.222;2022-07-23T08:13:27;4.83;;;4.00;;
2956;SDS011;1488;51.548;7.222;2022-07-23T08:15:55;3.97;;;3.50;;
2956;SDS011;1488;51.548;7.222;2022-07-23T08:18:22;4.90;;;3.43;;
2956;SDS011;1488;51.548;7.222;2022-07-23T08:20:49;3.23;;;2.93;;
2956;SDS011;1488;51.548;7.222;2022-07-23T08:23:15;4.27;;;2.93;;
2956;SDS011;1488;51.548;7.222;2022-07-23T08:25:45;5.77;;;3.10;;
2956;SDS011;1488;51.548;7.222;2022-07-23T08:28:13;2.70;;;2.50;;
2956;SDS011;1488;51.548;7.222;2022-07-23T08:30:41;2.93;;;2.63;;
2956;SDS011;1488;51.548;7.222;2022-07-23T08:33:11;3.40;;;2.70;;
2956;SDS011;1488;51.548;7.222;2022-07-23T08:35:39;2.83;;;2.63;;
2956;SDS011;1488;51.548;7.222;2022-07-23T08:38:10;3.00;;;2.80;;
2956;SDS011;1488;51.548;7.222;2022-07-23T08:40:38;2.67;;;2.47;;
2956;SDS011;1488;51.548;7.222;2022-07-23T08:43:06;2.80;;;2.60;;
2956;SDS011;1488;51.548;7.222;2022-07-23T08:45:36;2.90;;;2.70;;
2956;SDS011;1488;51.548;7.222;2022-07-23T08:48:05;2.47;;;2.27;;
2956;SDS011;1488;51.548;7.222;2022-07-23T08:50:36;3.23;;;2.80;;
2956;SDS011;1488;51.548;7.222;2022-07-23T08:53:06;2.80;;;2.23;;
2956;SDS011;1488;51.548;7.222;2022-07-23T08:55:33;5.50;;;3.00;;
2956;SDS011;1488;51.548;7.222;2022-07-23T08:58:00;3.63;;;2.60;;
2956;SDS011;1488;51.548;7.222;2022-07-23T09:00:28;2.83;;;2.67;;
2956;SDS011;1488;51.548;7.222;2022-07-23T09:02:55;2.53;;;2.33;;
2956;SDS011;1488;51.548;7.222;2022-07-23T09:05:22;2.57;;;2.37;;
2956;SDS011;1488;51.548;7.222;2022-07-23T09:08:10;3.10;;;2.40;;
2956;SDS011;1488;51.548;7.222;2022-07-23T09:10:49;2.67;;;2.47;;
2956;SDS011;1488;51.548;7.222;2022-07-23T09:13:31;2.30;;;2.10;;
2956;SDS011;1488;51.548;7.222;2022-07-23T09:16:02;2.70;;;2.20;;
2956;SDS011;1488;51.548;7.222;2022-07-23T09:18:32;2.43;;;2.23;;
2956;SDS011;1488;51.548;7.222;2022-07-23T09:21:08;2.33;;;2.00;;
2956;SDS011;1488;51.548;7.222;2022-07-23T09:23:38;2.80;;;2.60;;
2956;SDS011;1488;51.548;7.222;2022-07-23T09:26:19;1.90;;;1.80;;
2956;SDS011;1488;51.548;7.222;2022-07-23T09:28:57;2.47;;;2.20;;
2956;SDS011;1488;51.548;7.222;2022-07-23T09:31:30;2.00;;;1.80;;
2956;SDS011;1488;51.548;7.222;2022-07-23T09:34:06;3.40;;;2.07;;
2956;SDS011;1488;51.548;7.222;2022-07-23T09:36:34;2.00;;;1.90;;
2956;SDS011;1488;51.548;7.222;2022-07-23T09:39:03;2.00;;;1.90;;
2956;SDS011;1488;51.548;7.222;2022-07-23T09:41:33;2.43;;;2.23;;
2956;SDS011;1488;51.548;7.222;2022-07-23T09:44:06;2.23;;;2.13;;
2956;SDS011;1488;51.548;7.222;2022-07-23T09:46:37;2.03;;;1.93;;
2956;SDS011;1488;51.548;7.222;2022-07-23T09:49:15;1.90;;;1.77;;
2956;SDS011;1488;51.548;7.222;2022-07-23T09:51:45;1.97;;;1.87;;
2956;SDS011;1488;51.548;7.222;2022-07-23T09:54:25;2.20;;;2.00;;
2956;SDS011;1488;51.548;7.222;2022-07-23T09:56:54;1.80;;;1.70;;
2956;SDS011;1488;51.548;7.222;2022-07-23T09:59:23;2.30;;;2.10;;
2956;SDS011;1488;51.548;7.222;2022-07-23T10:01:52;2.00;;;1.90;;
2956;SDS011;1488;51.548;7.222;2022-07-23T10:04:20;2.37;;;2.17;;
2956;SDS011;1488;51.548;7.222;2022-07-23T10:06:48;1.70;;;1.60;;
2956;SDS011;1488;51.548;7.222;2022-07-23T10:09:21;1.90;;;1.80;;
2956;SDS011;1488;51.548;7.222;2022-07-23T10:11:53;1.80;;;1.70;;
2956;SDS011;1488;51.548;7.222;2022-07-23T10:14:24;2.27;;;2.17;;
2956;SDS011;1488;51.548;7.222;2022-07-23T10:16:55;1.87;;;1.77;;
2956;SDS011;1488;51.548;7.222;2022-07-23T10:19:23;2.17;;;2.07;;
2956;SDS011;1488;51.548;7.222;2022-07-23T10:21:52;1.90;;;1.80;;
2956;SDS011;1488;51.548;7.222;2022-07-23T10:24:28;1.60;;;1.50;;
2956;SDS011;1488;51.548;7.222;2022-07-23T10:27:05;1.80;;;1.70;;
2956;SDS011;1488;51.548;7.222;2022-07-23T10:29:50;1.63;;;1.53;;
2956;SDS011;1488;51.548;7.222;2022-07-23T10:32:25;1.60;;;1.50;;
2956;SDS011;1488;51.548;7.222;2022-07-23T10:34:58;1.97;;;1.87;;
2956;SDS011;1488;51.548;7.222;2022-07-23T10:37:38;2.90;;;2.03;;
2956;SDS011;1488;51.548;7.222;2022-07-23T10:40:09;1.67;;;1.57;;
2956;SDS011;1488;51.548;7.222;2022-07-23T10:42:38;1.77;;;1.67;;
2956;SDS011;1488;51.548;7.222;2022-07-23T10:45:22;2.73;;;1.50;;
2956;SDS011;1488;51.548;7.222;2022-07-23T10:47:54;1.73;;;1.63;;
2956;SDS011;1488;51.548;7.222;2022-07-23T10:50:23;1.93;;;1.83;;
2956;SDS011;1488;51.548;7.222;2022-07-23T10:55:48;2.17;;;2.07;;
2956;SDS011;1488;51.548;7.222;2022-07-23T10:58:17;1.57;;;1.47;;
2956;SDS011;1488;51.548;7.222;2022-07-23T11:00:48;2.40;;;2.20;;
2956;SDS011;1488;51.548;7.222;2022-07-23T11:03:32;2.40;;;1.70;;
2956;SDS011;1488;51.548;7.222;2022-07-23T11:06:01;1.80;;;1.70;;
2956;SDS011;1488;51.548;7.222;2022-07-23T11:08:28;1.90;;;1.80;;
2956;SDS011;1488;51.548;7.222;2022-07-23T11:11:07;1.50;;;1.40;;
2956;SDS011;1488;51.548;7.222;2022-07-23T11:13:40;1.73;;;1.63;;
2956;SDS011;1488;51.548;7.222;2022-07-23T11:16:15;1.70;;;1.60;;
2956;SDS011;1488;51.548;7.222;2022-07-23T11:19:05;1.60;;;1.40;;
2956;SDS011;1488;51.548;7.222;2022-07-23T11:21:48;1.50;;;1.40;;
2956;SDS011;1488;51.548;7.222;2022-07-23T11:24:17;1.70;;;1.60;;
2956;SDS011;1488;51.548;7.222;2022-07-23T11:26:48;1.80;;;1.70;;
2956;SDS011;1488;51.548;7.222;2022-07-23T11:29:43;2.60;;;1.60;;
2956;SDS011;1488;51.548;7.222;2022-07-23T11:34:58;1.50;;;1.40;;
2956;SDS011;1488;51.548;7.222;2022-07-23T11:40:14;1.60;;;1.50;;
2956;SDS011;1488;51.548;7.222;2022-07-23T11:42:52;1.60;;;1.50;;
2956;SDS011;1488;51.548;7.222;2022-07-23T11:45:21;1.67;;;1.57;;
2956;SDS011;1488;51.548;7.222;2022-07-23T11:47:50;1.43;;;1.33;;
2956;SDS011;1488;51.548;7.222;2022-07-23T11:50:18;1.53;;;1.43;;
2956;SDS011;1488;51.548;7.222;2022-07-23T11:52:45;1.60;;;1.50;;
2956;SDS011;1488;51.548;7.222;2022-07-23T11:55:11;1.40;;;1.30;;
2956;SDS011;1488;51.548;7.222;2022-07-23T11:57:41;1.27;;;1.17;;
2956;SDS011;1488;51.548;7.222;2022-07-23T12:00:11;1.43;;;1.33;;
2956;SDS011;1488;51.548;7.222;2022-07-23T12:02:40;1.80;;;1.70;;
2956;SDS011;1488;51.548;7.222;2022-07-23T12:05:11;1.60;;;1.50;;
2956;SDS011;1488;51.548;7.222;2022-07-23T12:07:39;1.47;;;1.30;;
2956;SDS011;1488;51.548;7.222;2022-07-23T12:10:09;2.03;;;1.27;;
2956;SDS011;1488;51.548;7.222;2022-07-23T12:12:39;1.60;;;1.50;;
2956;SDS011;1488;51.548;7.222;2022-07-23T12:15:10;1.73;;;1.37;;
2956;SDS011;1488;51.548;7.222;2022-07-23T12:17:38;1.30;;;1.20;;
2956;SDS011;1488;51.548;7.222;2022-07-23T12:20:07;1.60;;;1.50;;
2956;SDS011;1488;51.548;7.222;2022-07-23T12:22:37;1.70;;;1.60;;
2956;SDS011;1488;51.548;7.222;2022-07-23T12:25:06;1.50;;;1.40;;
2956;SDS011;1488;51.548;7.222;2022-07-23T12:27:34;2.37;;;1.70;;
2956;SDS011;1488;51.548;7.222;2022-07-23T12:30:16;1.40;;;1.30;;
2956;SDS011;1488;51.548;7.222;2022-07-23T12:32:44;1.80;;;1.70;;
2956;SDS011;1488;51.548;7.222;2022-07-23T12:35:13;1.37;;;1.27;;
2956;SDS011;1488;51.548;7.222;2022-07-23T12:37:41;1.30;;;1.20;;
2956;SDS011;1488;51.548;7.222;2022-07-23T12:40:19;1.37;;;1.27;;
2956;SDS011;1488;51.548;7.222;2022-07-23T12:42:48;1.43;;;1.33;;
2956;SDS011;1488;51.548;7.222;2022-07-23T12:45:17;1.60;;;1.50;;
2956;SDS011;1488;51.548;7.222;2022-07-23T12:50:44;1.63;;;1.53;;
2956;SDS011;1488;51.548;7.222;2022-07-23T12:53:16;1.53;;;1.43;;
2956;SDS011;1488;51.548;7.222;2022-07-23T12:55:45;1.50;;;1.40;;
2956;SDS011;1488;51.548;7.222;2022-07-23T12:58:14;1.60;;;1.50;;
2956;SDS011;1488;51.548;7.222;2022-07-23T13:03:36;1.40;;;1.30;;
2956;SDS011;1488;51.548;7.222;2022-07-23T13:06:06;1.40;;;1.30;;
2956;SDS011;1488;51.548;7.222;2022-07-23T13:08:36;1.40;;;1.30;;
2956;SDS011;1488;51.548;7.222;2022-07-23T13:11:04;1.63;;;1.53;;
2956;SDS011;1488;51.548;7.222;2022-07-23T13:13:34;1.20;;;1.10;;
2956;SDS011;1488;51.548;7.222;2022-07-23T13:16:01;1.40;;;1.30;;
2956;SDS011;1488;51.548;7.222;2022-07-23T13:18:30;1.50;;;1.20;;
2956;SDS011;1488;51.548;7.222;2022-07-23T13:20:57;1.40;;;1.30;;
2956;SDS011;1488;51.548;7.222;2022-07-23T13:23:24;1.40;;;1.30;;
2956;SDS011;1488;51.548;7.222;2022-07-23T13:25:52;1.50;;;1.40;;
2956;SDS011;1488;51.548;7.222;2022-07-23T13:28:19;1.60;;;1.20;;
2956;SDS011;1488;51.548;7.222;2022-07-23T13:30:48;1.27;;;1.17;;
2956;SDS011;1488;51.548;7.222;2022-07-23T13:33:17;2.13;;;1.43;;
2956;SDS011;1488;51.548;7.222;2022-07-23T13:35:46;1.43;;;1.33;;
2956;SDS011;1488;51.548;7.222;2022-07-23T13:38:14;1.33;;;1.23;;
2956;SDS011;1488;51.548;7.222;2022-07-23T13:40:41;1.40;;;1.30;;
2956;SDS011;1488;51.548;7.222;2022-07-23T13:43:09;1.50;;;1.40;;
2956;SDS011;1488;51.548;7.222;2022-07-23T13:45:37;1.50;;;1.30;;
2956;SDS011;1488;51.548;7.222;2022-07-23T13:48:05;2.00;;;1.43;;
2956;SDS011;1488;51.548;7.222;2022-07-23T13:50:32;1.27;;;1.17;;
2956;SDS011;1488;51.548;7.222;2022-07-23T13:53:02;1.43;;;1.30;;
2956;SDS011;1488;51.548;7.222;2022-07-23T13:55:29;1.27;;;1.17;;
2956;SDS011;1488;51.548;7.222;2022-07-23T13:57:57;1.77;;;1.10;;
2956;SDS011;1488;51.548;7.222;2022-07-23T14:00:24;1.40;;;1.30;;
2956;SDS011;1488;51.548;7.222;2022-07-23T14:02:52;1.90;;;1.50;;
2956;SDS011;1488;51.548;7.222;2022-07-23T14:05:19;1.30;;;1.20;;
2956;SDS011;1488;51.548;7.222;2022-07-23T14:07:46;1.50;;;1.40;;
2956;SDS011;1488;51.548;7.222;2022-07-23T14:10:16;1.40;;;1.30;;
2956;SDS011;1488;51.548;7.222;2022-07-23T14:12:44;1.20;;;1.10;;
2956;SDS011;1488;51.548;7.222;2022-07-23T14:15:11;1.40;;;1.30;;
2956;SDS011;1488;51.548;7.222;2022-07-23T14:17:38;1.33;;;1.23;;
2956;SDS011;1488;51.548;7.222;2022-07-23T14:20:08;1.20;;;1.10;;
2956;SDS011;1488;51.548;7.222;2022-07-23T14:22:36;1.50;;;1.40;;
2956;SDS011;1488;51.548;7.222;2022-07-23T14:25:04;1.40;;;1.30;;
2956;SDS011;1488;51.548;7.222;2022-07-23T14:27:33;1.30;;;1.20;;
2956;SDS011;1488;51.548;7.222;2022-07-23T14:30:00;1.20;;;1.10;;
2956;SDS011;1488;51.548;7.222;2022-07-23T14:32:27;1.20;;;1.10;;
2956;SDS011;1488;51.548;7.222;2022-07-23T14:34:54;1.40;;;1.30;;
2956;SDS011;1488;51.548;7.222;2022-07-23T14:37:21;1.60;;;1.50;;
2956;SDS011;1488;51.548;7.222;2022-07-23T14:39:49;1.40;;;1.20;;
2956;SDS011;1488;51.548;7.222;2022-07-23T14:42:17;1.70;;;1.60;;
2956;SDS011;1488;51.548;7.222;2022-07-23T14:44:46;1.23;;;1.13;;
2956;SDS011;1488;51.548;7.222;2022-07-23T14:47:12;1.40;;;1.30;;
2956;SDS011;1488;51.548;7.222;2022-07-23T14:49:39;1.10;;;1.00;;
2956;SDS011;1488;51.548;7.222;2022-07-23T14:52:06;1.30;;;1.20;;
2956;SDS011;1488;51.548;7.222;2022-07-23T14:54:33;1.40;;;1.30;;
2956;SDS011;1488;51.548;7.222;2022-07-23T14:57:00;1.40;;;1.30;;
2956;SDS011;1488;51.548;7.222;2022-07-23T14:59:28;1.30;;;1.20;;
2956;SDS011;1488;51.548;7.222;2022-07-23T15:01:57;1.33;;;1.23;;
2956;SDS011;1488;51.548;7.222;2022-07-23T15:04:25;1.30;;;1.20;;
2956;SDS011;1488;51.548;7.222;2022-07-23T15:06:52;1.70;;;1.60;;
2956;SDS011;1488;51.548;7.222;2022-07-23T15:09:19;1.43;;;1.33;;
2956;SDS011;1488;51.548;7.222;2022-07-23T15:11:46;1.57;;;1.47;;
2956;SDS011;1488;51.548;7.222;2022-07-23T15:14:13;1.40;;;1.30;;
2956;SDS011;1488;51.548;7.222;2022-07-23T15:16:40;1.33;;;1.23;;
2956;SDS011;1488;51.548;7.222;2022-07-23T15:19:09;1.50;;;1.33;;
2956;SDS011;1488;51.548;7.222;2022-07-23T15:21:36;2.60;;;1.60;;
2956;SDS011;1488;51.548;7.222;2022-07-23T15:24:03;1.57;;;1.47;;
2956;SDS011;1488;51.548;7.222;2022-07-23T15:26:30;1.40;;;1.30;;
2956;SDS011;1488;51.548;7.222;2022-07-23T15:28:57;1.20;;;1.10;;
2956;SDS011;1488;51.548;7.222;2022-07-23T15:31:26;1.20;;;1.03;;
2956;SDS011;1488;51.548;7.222;2022-07-23T15:33:53;1.40;;;1.30;;
2956;SDS011;1488;51.548;7.222;2022-07-23T15:36:21;1.53;;;1.43;;
2956;SDS011;1488;51.548;7.222;2022-07-23T15:38:48;1.30;;;1.20;;
2956;SDS011;1488;51.548;7.222;2022-07-23T15:41:15;2.53;;;1.30;;
2956;SDS011;1488;51.548;7.222;2022-07-23T15:43:42;2.17;;;1.33;;
2956;SDS011;1488;51.548;7.222;2022-07-23T15:46:09;1.60;;;1.50;;
2956;SDS011;1488;51.548;7.222;2022-07-23T15:48:36;2.63;;;1.30;;